Time;durP1;ratioP1;P1;durP2;ratioP2;P2;SDS_P1;SDS_P2;PMS_P1;PMS_P2;Temp;Humidity;BMP_temperature;BMP_pressure;BME280_temperature;BME280_humidity;BME280_pressure;Samples;Min_cycle;Max_cycle;Signal;HPM_P1;HPM_P2
2022/10/19 00:01:16;;;;;;;10.23;1.67;;;11.70;99.90;;;;;;5071907;28;20051;-83
2022/10/19 00:03:42;;;;;;;6.03;1.30;;;11.60;99.90;;;;;;5055591;28;20059;-83
2022/10/19 00:06:15;;;;;;;5.75;1.25;;;11.60;99.90;;;;;;5072072;28;20040;-82
2022/10/19 00:08:41;;;;;;;;;;;11.50;99.90;;;;;;5054663;28;20040;-83
2022/10/19 00:11:07;;;;;;;5.68;1.52;;;11.50;99.90;;;;;;5055372;28;20339;-83
2022/10/19 00:13:34;;;;;;;3.75;1.67;;;11.40;99.90;;;;;;5072096;28;20036;-82
2022/10/19 00:16:00;;;;;;;6.00;1.65;;;11.40;99.90;;;;;;5072227;28;20041;-82
2022/10/19 00:18:25;;;;;;;3.78;1.23;;;11.30;99.90;;;;;;5072042;28;20521;-83
2022/10/19 00:20:51;;;;;;;5.53;1.48;;;11.30;99.90;;;;;;5071418;28;20097;-82
2022/10/19 00:23:16;;;;;;;6.50;1.40;;;11.20;99.90;;;;;;5054859;28;20033;-82
2022/10/19 00:25:42;;;;;;;9.70;1.90;;;11.10;99.90;;;;;;5071759;28;20040;-82
2022/10/19 00:28:07;;;;;;;9.80;1.50;;;11.10;99.90;;;;;;5071693;28;20048;-82
2022/10/19 00:30:37;;;;;;;9.90;2.47;;;11.10;99.90;;;;;;5055013;28;20033;-82
2022/10/19 00:33:03;;;;;;;7.38;1.58;;;11.10;99.90;;;;;;5071338;28;20051;-82
2022/10/19 00:35:29;;;;;;;4.60;1.55;;;11.10;99.90;;;;;;5055064;28;20048;-82
2022/10/19 00:37:54;;;;;;;7.03;1.67;;;11.00;99.90;;;;;;5071473;28;20044;-82
2022/10/19 00:40:20;;;;;;;6.70;1.40;;;11.00;99.90;;;;;;5055092;28;20554;-82
2022/10/19 00:42:45;;;;;;;7.00;1.90;;;11.00;99.90;;;;;;5071065;28;20544;-82
2022/10/19 00:45:16;;;;;;;4.85;1.38;;;11.00;99.90;;;;;;5055047;28;20406;-82
2022/10/19 00:47:43;;;;;;;5.63;1.55;;;10.90;99.90;;;;;;5071306;28;20418;-82
2022/10/19 00:50:13;;;;;;;5.15;1.52;;;10.90;99.90;;;;;;5071089;28;20044;-82
2022/10/19 00:52:38;;;;;;;8.18;1.73;;;10.90;99.90;;;;;;5070769;28;20063;-82
2022/10/19 00:55:06;;;;;;;5.50;1.65;;;10.80;99.90;;;;;;5054677;28;20032;-82
2022/10/19 00:57:32;;;;;;;6.43;1.48;;;10.80;99.90;;;;;;5071486;28;20506;-82
2022/10/19 00:59:59;;;;;;;7.18;1.63;;;10.70;99.90;;;;;;5071032;28;20068;-82
2022/10/19 01:02:25;;;;;;;5.82;1.70;;;10.70;99.90;;;;;;5071098;28;20040;-82
2022/10/19 01:04:51;;;;;;;6.28;1.52;;;10.70;99.90;;;;;;5070877;28;20048;-82
2022/10/19 01:07:18;;;;;;;5.43;1.58;;;10.60;99.90;;;;;;5071003;28;20551;-82
2022/10/19 01:09:44;;;;;;;11.88;2.78;;;10.70;99.90;;;;;;5070880;28;20071;-82
2022/10/19 01:12:37;;;;;;;5.85;1.75;;;10.70;99.90;;;;;;5070846;28;20068;-82
2022/10/19 01:15:08;;;;;;;6.53;1.70;;;10.70;99.90;;;;;;5070933;28;20044;-82
2022/10/19 01:18:04;;;;;;;8.07;1.58;;;10.70;99.90;;;;;;5054217;28;20048;-83
2022/10/19 01:21:01;;;;;;;3.05;1.42;;;10.70;99.90;;;;;;5070627;28;20379;-82
2022/10/19 01:23:40;;;;;;;8.77;1.58;;;10.60;99.90;;;;;;5070929;28;20493;-82
2022/10/19 01:26:42;;;;;;;5.32;1.63;;;10.50;99.90;;;;;;5070695;28;20090;-82
2022/10/19 01:29:19;;;;;;;3.92;1.30;;;10.50;99.90;;;;;;5070981;28;20375;-82
2022/10/19 01:32:10;;;;;;;4.25;1.70;;;10.50;99.90;;;;;;5070278;28;20043;-82
2022/10/19 01:34:52;;;;;;;4.10;1.30;;;10.40;99.90;;;;;;5070974;28;20519;-82
2022/10/19 01:37:32;;;;;;;5.00;1.27;;;10.40;99.90;;;;;;5070766;28;20041;-82
2022/10/19 01:40:04;;;;;;;3.70;0.90;;;10.40;99.90;;;;;;5070605;28;20036;-82
2022/10/19 01:42:58;;;;;;;1.35;0.50;;;10.40;99.90;;;;;;5070462;28;20044;-82
2022/10/19 01:45:48;;;;;;;2.03;0.45;;;10.40;99.90;;;;;;5070848;28;20121;-82
2022/10/19 01:48:28;;;;;;;0.68;0.60;;;10.40;99.90;;;;;;5070765;28;20040;-82
2022/10/19 01:50:59;;;;;;;2.22;0.73;;;10.40;99.90;;;;;;5070012;28;20121;-82
2022/10/19 01:53:27;;;;;;;2.42;0.70;;;10.40;99.90;;;;;;5070469;28;20040;-82
2022/10/19 01:55:55;;;;;;;2.65;0.90;;;10.40;99.90;;;;;;5054008;28;20045;-82
2022/10/19 01:58:26;;;;;;;4.20;1.10;;;10.40;99.90;;;;;;5070239;28;20041;-82
2022/10/19 02:00:54;;;;;;;6.75;1.20;;;10.40;99.90;;;;;;5070212;28;20048;-82
2022/10/19 02:03:22;;;;;;;3.95;1.23;;;10.40;99.90;;;;;;5070191;28;20414;-82
2022/10/19 02:05:50;;;;;;;5.30;1.40;;;10.40;99.90;;;;;;5070346;28;20032;-82
2022/10/19 02:08:23;;;;;;;7.18;1.60;;;10.50;99.90;;;;;;5070127;28;20037;-82
2022/10/19 02:10:50;;;;;;;5.28;1.45;;;10.50;99.90;;;;;;5070306;28;20070;-82
2022/10/19 02:13:16;;;;;;;7.63;1.40;;;10.50;99.90;;;;;;5070135;28;20554;-82
2022/10/19 02:15:46;;;;;;;4.78;1.65;;;10.50;99.90;;;;;;5070226;28;20509;-82
2022/10/19 02:18:16;;;;;;;7.45;1.60;;;10.50;99.90;;;;;;5053344;28;20529;-82
2022/10/19 02:20:41;;;;;;;5.55;1.60;;;10.50;99.90;;;;;;5053247;28;20044;-82
2022/10/19 02:23:07;;;;;;;8.15;2.00;;;10.60;99.90;;;;;;5069957;28;20041;-82
2022/10/19 02:25:33;;;;;;;9.27;1.60;;;10.60;99.90;;;;;;5053460;28;20037;-82
2022/10/19 02:28:01;;;;;;;8.55;1.95;;;10.60;99.90;;;;;;5070040;28;20078;-82
2022/10/19 02:30:26;;;;;;;5.05;1.73;;;10.60;99.90;;;;;;5069924;28;20050;-82
2022/10/19 02:32:52;;;;;;;6.95;1.98;;;10.70;99.90;;;;;;5072118;28;20044;-82
2022/10/19 02:35:18;;;;;;;6.38;1.80;;;10.70;99.90;;;;;;5073786;28;20041;-82
2022/10/19 02:37:44;;;;;;;11.80;2.22;;;10.70;99.90;;;;;;5073819;28;20123;-82
2022/10/19 02:40:10;;;;;;;8.32;2.08;;;10.70;99.90;;;;;;5057119;28;20070;-82
2022/10/19 02:42:46;;;;;;;9.07;2.05;;;10.70;99.90;;;;;;5073447;28;20047;-82
2022/10/19 02:45:24;;;;;;;9.52;2.17;;;10.70;99.90;;;;;;5073759;28;20068;-82
2022/10/19 02:47:56;;;;;;;7.40;1.65;;;10.70;99.90;;;;;;5057271;28;20082;-82
2022/10/19 02:50:22;;;;;;;5.10;1.80;;;10.60;99.90;;;;;;5056854;28;20078;-82
2022/10/19 02:52:48;;;;;;;9.88;2.10;;;10.70;99.90;;;;;;5073229;28;20444;-82
2022/10/19 02:55:14;;;;;;;6.80;2.00;;;10.60;99.90;;;;;;5073487;28;20028;-82
2022/10/19 02:57:39;;;;;;;8.13;2.10;;;10.70;99.90;;;;;;5056925;28;20085;-82
2022/10/19 03:00:06;;;;;;;5.68;1.90;;;10.70;99.90;;;;;;5073319;28;20036;-82
2022/10/19 03:02:32;;;;;;;5.68;1.80;;;10.60;99.90;;;;;;5073126;28;20048;-82
2022/10/19 03:04:57;;;;;;;5.53;1.50;;;10.60;99.90;;;;;;5056534;28;20040;-82
2022/10/19 03:07:23;;;;;;;7.95;2.10;;;10.70;99.90;;;;;;5073279;28;20040;-82
2022/10/19 03:09:49;;;;;;;6.82;2.33;;;10.60;99.90;;;;;;5056485;28;20051;-82
2022/10/19 03:12:15;;;;;;;6.97;2.05;;;10.70;99.90;;;;;;5072654;28;20032;-82
2022/10/19 03:14:41;;;;;;;6.97;2.17;;;10.70;99.90;;;;;;5073118;28;20048;-82
2022/10/19 03:17:07;;;;;;;6.53;2.05;;;10.70;99.90;;;;;;5073093;28;20041;-82
2022/10/19 03:19:34;;;;;;;7.63;2.20;;;10.70;99.90;;;;;;5056667;28;20114;-82
2022/10/19 03:21:59;;;;;;;8.77;1.98;;;10.70;99.90;;;;;;5072616;28;20067;-82
2022/10/19 03:24:25;;;;;;;6.30;1.75;;;10.70;99.90;;;;;;5072956;28;20041;-82
2022/10/19 03:26:51;;;;;;;6.82;2.08;;;10.70;99.90;;;;;;5072801;28;20040;-82
2022/10/19 03:29:16;;;;;;;5.90;1.33;;;10.70;99.90;;;;;;5072972;28;20035;-82
2022/10/19 03:31:42;;;;;;;5.53;1.63;;;10.70;99.90;;;;;;5072567;28;20041;-82
2022/10/19 03:34:07;;;;;;;4.22;1.48;;;10.60;99.90;;;;;;5056378;28;20033;-82
2022/10/19 03:36:35;;;;;;;4.15;1.67;;;10.60;99.90;;;;;;5073094;28;20555;-82
2022/10/19 03:39:04;;;;;;;7.70;2.03;;;10.60;99.90;;;;;;5072950;28;20131;-82
2022/10/19 03:41:32;;;;;;;5.28;1.83;;;10.60;99.90;;;;;;5072544;28;20046;-82
2022/10/19 03:43:58;;;;;;;5.47;1.92;;;10.60;99.90;;;;;;5055738;28;20041;-82
2022/10/19 03:46:25;;;;;;;5.72;1.73;;;10.60;99.90;;;;;;5055993;28;20036;-82
2022/10/19 03:48:51;;;;;;;6.80;1.70;;;10.60;99.90;;;;;;5072771;28;20040;-82
2022/10/19 03:51:20;;;;;;;5.32;1.50;;;10.60;99.90;;;;;;5072193;28;20037;-82
2022/10/19 03:53:46;;;;;;;4.90;1.90;;;10.60;99.90;;;;;;5072635;28;20048;-82
2022/10/19 03:56:14;;;;;;;7.05;1.88;;;10.60;99.90;;;;;;5072342;28;20037;-82
2022/10/19 03:58:41;;;;;;;6.63;2.05;;;10.60;99.90;;;;;;5055629;28;20094;-82
2022/10/19 04:01:16;;;;;;;5.03;2.03;;;10.60;99.90;;;;;;5072274;28;20563;-82
2022/10/19 04:03:42;;;;;;;8.43;2.13;;;10.60;99.90;;;;;;5072112;28;20086;-82
2022/10/19 04:06:12;;;;;;;6.47;2.00;;;10.50;99.90;;;;;;5072236;28;20086;-82
2022/10/19 04:08:37;;;;;;;6.47;1.73;;;10.50;99.90;;;;;;5071983;28;20418;-82
2022/10/19 04:11:14;;;;;;;4.63;1.42;;;10.50;99.90;;;;;;5071959;28;20123;-82
2022/10/19 04:13:39;;;;;;;6.50;1.98;;;10.50;99.90;;;;;;5072139;28;20639;-82
2022/10/19 04:16:06;;;;;;;6.13;1.70;;;10.40;99.90;;;;;;5071923;28;20032;-82
2022/10/19 04:18:31;;;;;;;5.65;1.70;;;10.40;99.90;;;;;;5071940;28;20047;-82
2022/10/19 04:20:59;;;;;;;7.15;1.52;;;10.40;99.90;;;;;;5071747;28;20040;-82
2022/10/19 04:23:35;;;;;;;12.52;3.25;;;10.40;99.90;;;;;;5055136;28;20040;-82
2022/10/19 04:26:06;;;;;;;5.47;1.92;;;10.40;99.90;;;;;;5055380;28;20041;-82
2022/10/19 04:28:33;;;;;;;5.25;1.95;;;10.40;99.90;;;;;;5071880;28;20123;-82
2022/10/19 04:31:04;;;;;;;10.00;2.13;;;10.40;99.90;;;;;;5054565;28;20036;-82
2022/10/19 04:33:29;;;;;;;5.97;1.88;;;10.40;99.90;;;;;;5071845;28;20067;-82
2022/10/19 04:36:03;;;;;;;7.03;1.90;;;10.40;99.90;;;;;;5071585;28;20490;-82
2022/10/19 04:38:30;;;;;;;7.82;2.15;;;10.40;99.90;;;;;;5071658;28;20044;-82
2022/10/19 04:40:59;;;;;;;8.52;2.65;;;10.40;99.90;;;;;;5054738;28;20379;-82
2022/10/19 04:43:25;;;;;;;8.60;2.17;;;10.40;99.90;;;;;;5054962;28;20041;-82
2022/10/19 04:45:50;;;;;;;5.90;1.90;;;10.40;99.90;;;;;;5054783;28;20494;-82
2022/10/19 04:48:16;;;;;;;7.97;2.38;;;10.50;99.90;;;;;;5071249;28;20036;-82
2022/10/19 04:50:41;;;;;;;5.65;2.00;;;10.50;99.90;;;;;;5054514;28;20048;-82
2022/10/19 04:53:07;;;;;;;7.25;2.05;;;10.50;99.90;;;;;;5054332;28;20048;-82
2022/10/19 04:55:32;;;;;;;5.57;1.70;;;10.50;99.90;;;;;;5071098;28;20036;-82
2022/10/19 04:57:58;;;;;;;6.70;2.22;;;10.50;99.90;;;;;;5071181;28;20520;-82
2022/10/19 05:00:24;;;;;;;7.50;2.05;;;10.50;99.90;;;;;;5071115;28;20036;-82
2022/10/19 05:02:49;;;;;;;7.60;2.15;;;10.50;99.90;;;;;;5070553;28;20041;-82
2022/10/19 05:05:15;;;;;;;6.68;2.03;;;10.50;99.90;;;;;;5071151;28;20041;-82
2022/10/19 05:07:40;;;;;;;7.68;1.88;;;10.50;99.90;;;;;;5071241;28;20379;-82
2022/10/19 05:10:11;;;;;;;4.30;1.80;;;10.40;99.90;;;;;;5070912;28;20041;-82
2022/10/19 05:12:36;;;;;;;4.68;1.55;;;10.40;99.90;;;;;;5054125;28;20047;-82
2022/10/19 05:15:02;;;;;;;3.22;1.30;;;10.40;99.90;;;;;;5070815;28;20041;-82
2022/10/19 05:17:31;;;;;;;4.22;1.45;;;10.40;99.90;;;;;;5070799;28;20055;-82
2022/10/19 05:19:56;;;;;;;6.72;1.55;;;10.30;99.90;;;;;;5070815;28;20083;-82
2022/10/19 05:22:22;;;;;;;3.65;1.10;;;10.30;99.90;;;;;;5070542;28;20071;-82
2022/10/19 05:24:48;;;;;;;2.88;1.15;;;10.30;99.90;;;;;;5053998;28;20076;-82
2022/10/19 05:27:13;;;;;;;6.82;1.88;;;10.20;99.90;;;;;;5070718;28;20036;-82
2022/10/19 05:29:39;;;;;;;4.90;1.55;;;10.20;99.90;;;;;;5070907;28;20398;-82
2022/10/19 05:32:05;;;;;;;5.20;1.42;;;10.20;99.90;;;;;;5070175;28;20089;-82
2022/10/19 05:34:30;;;;;;;3.65;1.00;;;10.20;99.90;;;;;;5053997;28;20043;-82
2022/10/19 05:36:56;;;;;;;7.25;1.65;;;10.20;99.90;;;;;;5070731;28;20043;-82
2022/10/19 05:39:22;;;;;;;4.60;1.73;;;10.20;99.90;;;;;;5070835;28;20045;-82
2022/10/19 05:41:47;;;;;;;7.65;1.60;;;10.20;99.90;;;;;;5053320;28;20033;-82
2022/10/19 05:44:19;;;;;;;6.05;1.52;;;10.20;99.90;;;;;;5070187;28;20037;-82
2022/10/19 05:46:45;;;;;;;14.85;1.95;;;10.20;99.90;;;;;;5070253;28;20260;-82
2022/10/19 05:49:12;;;;;;;6.70;1.50;;;10.20;99.90;;;;;;5070533;28;20029;-82
2022/10/19 05:51:38;;;;;;;7.57;1.75;;;10.20;99.90;;;;;;5053127;28;20425;-82
2022/10/19 05:54:04;;;;;;;7.47;1.73;;;10.30;99.90;;;;;;5070385;28;20090;-82
2022/10/19 05:56:31;;;;;;;6.13;1.45;;;10.30;99.90;;;;;;5053470;28;20047;-82
2022/10/19 05:58:59;;;;;;;10.82;1.70;;;10.40;99.90;;;;;;5070581;28;20055;-82
2022/10/19 06:01:25;;;;;;;9.10;2.08;;;10.40;99.90;;;;;;5070153;28;20080;-82
2022/10/19 06:03:53;;;;;;;8.30;2.03;;;10.40;99.90;;;;;;5070109;28;20106;-82
2022/10/19 06:06:18;;;;;;;7.70;1.55;;;10.40;99.90;;;;;;5069090;28;20066;-82
2022/10/19 06:08:45;;;;;;;10.93;2.30;;;10.40;99.90;;;;;;5074247;28;20044;-82
2022/10/19 06:11:13;;;;;;;9.75;1.92;;;10.50;99.90;;;;;;5074103;28;20036;-82
2022/10/19 06:13:40;;;;;;;8.93;1.98;;;10.50;99.90;;;;;;5057551;28;20040;-82
2022/10/19 06:16:07;;;;;;;8.63;1.65;;;10.50;99.90;;;;;;5074300;28;20043;-82
2022/10/19 06:18:33;;;;;;;8.88;2.00;;;10.50;99.90;;;;;;5074487;28;20090;-82
2022/10/19 06:21:07;;;;;;;9.00;1.40;;;10.50;99.90;;;;;;5074123;28;20040;-82
2022/10/19 06:23:33;;;;;;;7.40;1.55;;;10.60;99.90;;;;;;5073713;28;20119;-82
2022/10/19 06:26:02;;;;;;;5.93;1.30;;;10.60;99.90;;;;;;5074323;28;20036;-82
2022/10/19 06:28:28;;;;;;;7.43;1.60;;;10.60;99.90;;;;;;5073911;28;20036;-82
2022/10/19 06:30:55;;;;;;;5.70;1.40;;;10.60;99.90;;;;;;5073927;28;20044;-82
2022/10/19 06:33:21;;;;;;;8.38;1.65;;;10.60;99.90;;;;;;5073932;28;20165;-82
2022/10/19 06:35:47;;;;;;;8.45;1.90;;;10.60;99.90;;;;;;5074262;28;20079;-82
2022/10/19 06:38:12;;;;;;;8.13;1.40;;;10.60;99.90;;;;;;5074162;28;20541;-82
2022/10/19 06:40:38;;;;;;;8.43;1.65;;;10.60;99.90;;;;;;5073605;28;20536;-82
2022/10/19 06:43:03;;;;;;;10.60;1.75;;;10.60;99.90;;;;;;5073766;28;20452;-82
2022/10/19 06:45:29;;;;;;;9.18;1.38;;;10.60;99.90;;;;;;5073673;28;20039;-82
2022/10/19 06:47:55;;;;;;;10.88;1.55;;;10.60;99.90;;;;;;5056893;28;20036;-82
2022/10/19 06:50:20;;;;;;;9.18;1.48;;;10.70;99.90;;;;;;5057184;28;20387;-82
2022/10/19 06:52:46;;;;;;;3.72;1.13;;;10.60;99.90;;;;;;5073157;28;20524;-82
2022/10/19 06:55:12;;;;;;;13.48;1.88;;;10.70;99.90;;;;;;5073385;28;20046;-82
2022/10/19 06:57:37;;;;;;;6.22;1.42;;;10.70;99.90;;;;;;5056880;28;20085;-82
2022/10/19 07:00:05;;;;;;;6.93;1.67;;;10.70;99.90;;;;;;5073435;28;20032;-82
2022/10/19 07:02:31;;;;;;;6.82;1.60;;;10.70;99.90;;;;;;5073335;28;20468;-82
2022/10/19 07:04:56;;;;;;;10.18;1.65;;;10.80;99.90;;;;;;5073365;28;20048;-82
2022/10/19 07:07:22;;;;;;;9.45;1.75;;;10.80;99.90;;;;;;5073276;28;20132;-82
2022/10/19 07:09:47;;;;;;;7.60;1.73;;;10.80;99.90;;;;;;5073074;28;20028;-82
2022/10/19 07:12:13;;;;;;;11.70;2.63;;;10.80;99.90;;;;;;5056189;28;20124;-82
2022/10/19 07:14:39;;;;;;;8.68;1.50;;;11.00;99.90;;;;;;5073416;28;20044;-82
2022/10/19 07:17:05;;;;;;;9.55;1.98;;;11.00;99.90;;;;;;5056534;28;20044;-82
2022/10/19 07:19:31;;;;;;;6.57;1.77;;;11.00;99.90;;;;;;5055986;28;20091;-83
2022/10/19 07:21:57;;;;;;;10.10;1.90;;;11.00;99.90;;;;;;5072537;28;20072;-82
2022/10/19 07:24:23;;;;;;;9.85;2.08;;;11.00;99.90;;;;;;5056239;28;20586;-82
2022/10/19 07:26:48;;;;;;;7.68;1.73;;;11.00;99.90;;;;;;5073000;28;20162;-82
2022/10/19 07:29:14;;;;;;;5.88;1.63;;;11.10;99.90;;;;;;5056221;28;20037;-82
2022/10/19 07:31:40;;;;;;;7.68;1.75;;;11.10;99.90;;;;;;5072597;28;20040;-82
2022/10/19 07:34:06;;;;;;;7.10;1.35;;;11.20;99.90;;;;;;5056470;28;20048;-82
2022/10/19 07:36:34;;;;;;;12.27;2.58;;;11.10;99.90;;;;;;5073133;28;20054;-82
2022/10/19 07:39:01;;;;;;;8.43;1.88;;;11.30;99.90;;;;;;5072559;28;20036;-82
2022/10/19 07:41:27;;;;;;;12.88;2.55;;;11.30;99.90;;;;;;5072430;28;20090;-82
2022/10/19 07:43:53;;;;;;;12.65;1.98;;;11.30;99.90;;;;;;5072533;28;20040;-82
2022/10/19 07:46:24;;;;;;;14.75;2.13;;;11.40;99.90;;;;;;5072707;28;20089;-82
2022/10/19 07:48:50;;;;;;;10.52;1.65;;;11.40;99.90;;;;;;5072461;28;20044;-82
2022/10/19 07:51:17;;;;;;;11.27;1.88;;;11.40;99.90;;;;;;5055787;28;20076;-82
2022/10/19 07:53:43;;;;;;;14.85;2.53;;;11.40;99.90;;;;;;5072437;28;20046;-82
2022/10/19 07:56:13;;;;;;;12.35;2.03;;;11.50;99.90;;;;;;5055742;28;20040;-82
2022/10/19 07:58:39;;;;;;;8.85;1.55;;;11.60;99.90;;;;;;5072341;28;20037;-82
2022/10/19 08:01:10;;;;;;;8.20;1.60;;;11.60;99.90;;;;;;5055240;28;20089;-82
2022/10/19 08:03:36;;;;;;;14.13;2.80;;;11.70;99.90;;;;;;5072261;28;20094;-82
2022/10/19 08:06:04;;;;;;;9.02;2.15;;;11.80;99.90;;;;;;5054976;28;20401;-82
2022/10/19 08:08:29;;;;;;;11.15;1.65;;;11.80;99.90;;;;;;5071444;28;20548;-83
2022/10/19 08:10:55;;;;;;;9.25;1.75;;;11.80;99.90;;;;;;5071337;28;20037;-83
2022/10/19 08:13:21;;;;;;;18.02;3.00;;;11.80;99.90;;;;;;5069040;28;20175;-83
2022/10/19 08:15:46;;;;;;;10.38;1.75;;;11.90;99.90;;;;;;5070868;28;20106;-82
2022/10/19 08:18:12;;;;;;;9.30;1.33;;;11.90;99.90;;;;;;5054179;28;20036;-82
2022/10/19 08:20:41;;;;;;;9.60;1.75;;;12.00;99.90;;;;;;5054021;28;20040;-82
2022/10/19 08:23:06;;;;;;;11.45;2.95;;;12.00;99.90;;;;;;5070517;28;20044;-82
2022/10/19 08:25:32;;;;;;;10.07;1.63;;;12.00;99.90;;;;;;5071089;28;20036;-82
2022/10/19 08:27:58;;;;;;;8.85;1.65;;;12.10;99.90;;;;;;5071384;28;20032;-83
2022/10/19 08:30:23;;;;;;;11.95;2.97;;;12.20;99.90;;;;;;5067799;28;20032;-82
2022/10/19 08:32:49;;;;;;;11.15;1.83;;;12.20;99.90;;;;;;5070317;28;20037;-82
2022/10/19 08:35:15;;;;;;;10.32;1.50;;;12.30;99.90;;;;;;5070643;28;20032;-82
2022/10/19 08:37:40;;;;;;;10.57;1.92;;;12.30;99.90;;;;;;5070561;28;20090;-82
2022/10/19 08:40:17;;;;;;;11.82;2.03;;;12.40;99.90;;;;;;5053005;28;20051;-82
2022/10/19 08:43:03;;;;;;;14.02;2.80;;;12.40;99.90;;;;;;5070202;28;20523;-83
2022/10/19 08:45:39;;;;;;;13.73;2.60;;;12.50;99.90;;;;;;5070384;28;20147;-83
2022/10/19 08:48:35;;;;;;;10.93;1.85;;;12.60;99.90;;;;;;5070166;28;20383;-82
2022/10/19 08:51:01;;;;;;;10.38;1.20;;;12.60;99.90;;;;;;5070118;28;20040;-83
2022/10/19 08:53:44;;;;;;;14.10;2.70;;;12.60;99.90;;;;;;5070489;28;20033;-83
2022/10/19 08:56:24;;;;;;;;;;;12.70;99.90;;;;;;5053600;28;20091;-82
2022/10/19 08:59:04;;;;;;;12.38;1.58;;;12.70;99.90;;;;;;5070375;28;19927;-82
2022/10/19 09:01:46;;;;;;;15.07;2.80;;;12.70;99.90;;;;;;5052265;28;20119;-82
2022/10/19 09:04:20;;;;;;;11.00;2.17;;;12.80;99.90;;;;;;5069946;28;20059;-82
2022/10/19 09:06:56;;;;;;;10.07;1.25;;;12.80;99.90;;;;;;5052795;28;20115;-82
2022/10/19 09:09:22;;;;;;;10.43;1.63;;;12.90;99.90;;;;;;5053556;28;20032;-82
2022/10/19 09:11:52;;;;;;;16.23;3.83;;;12.90;99.90;;;;;;5052513;28;20036;-82
2022/10/19 09:14:24;;;;;;;11.73;2.17;;;13.00;99.90;;;;;;5052896;28;20567;-82
2022/10/19 09:16:50;;;;;;;9.43;1.60;;;13.00;99.90;;;;;;5053193;28;20052;-83
2022/10/19 09:19:28;;;;;;;11.57;2.42;;;13.00;99.90;;;;;;5070166;28;20391;-82
2022/10/19 09:22:20;;;;;;;11.13;1.88;;;13.10;99.90;;;;;;5068821;28;20128;-82
2022/10/19 09:24:57;;;;;;;11.38;2.83;;;13.10;99.90;;;;;;5054050;28;20433;-82
2022/10/19 09:27:24;;;;;;;11.88;2.83;;;13.20;99.90;;;;;;5054086;28;20082;-82
2022/10/19 09:29:57;;;;;;;10.43;2.67;;;13.30;99.90;;;;;;5053747;28;20036;-82
2022/10/19 09:32:33;;;;;;;10.90;2.30;;;13.30;99.90;;;;;;5053755;28;20032;-83
2022/10/19 09:35:02;;;;;;;9.73;2.33;;;13.30;99.90;;;;;;5070602;28;20048;-82
2022/10/19 09:37:30;;;;;;;14.43;2.05;;;13.40;99.90;;;;;;5070643;28;20044;-83
2022/10/19 09:39:56;;;;;;;10.88;1.92;;;13.40;99.90;;;;;;5053719;28;20044;-83
2022/10/19 09:42:31;;;;;;;10.90;1.80;;;13.50;99.90;;;;;;5052954;28;20518;-83
2022/10/19 09:45:11;;;;;;;6.72;1.40;;;13.50;99.90;;;;;;5053711;28;20048;-83
2022/10/19 09:47:39;;;;;;;12.95;1.52;;;13.50;99.90;;;;;;5070565;28;20032;-83
2022/10/19 09:50:13;;;;;;;7.97;1.52;;;13.50;99.90;;;;;;5053135;28;20401;-82
2022/10/19 09:52:40;;;;;;;9.38;1.83;;;13.50;99.90;;;;;;5069871;28;20040;-82
2022/10/19 09:55:21;;;;;;;9.13;1.52;;;13.60;99.90;;;;;;5070251;28;20040;-82
2022/10/19 09:57:49;;;;;;;10.40;2.30;;;13.60;99.90;;;;;;5070010;28;20037;-83
2022/10/19 10:00:21;;;;;;;9.93;2.20;;;13.70;99.90;;;;;;5070519;28;20127;-83
2022/10/19 10:02:49;;;;;;;;;;;13.70;99.90;;;;;;5070090;28;20489;-83
2022/10/19 10:05:15;;;;;;;8.68;2.00;;;13.70;99.90;;;;;;5053572;28;19920;-83
2022/10/19 10:07:41;;;;;;;9.90;1.50;;;13.80;99.90;;;;;;5069932;28;20044;-83
2022/10/19 10:10:34;;;;;;;9.05;2.08;;;13.80;99.90;;;;;;5069266;28;20028;-83
2022/10/19 10:13:00;;;;;;;5.35;1.08;;;14.00;99.90;;;;;;5069044;28;20119;-82
2022/10/19 10:15:29;;;;;;;8.68;2.13;;;14.10;99.90;;;;;;5069297;28;20143;-81
2022/10/19 10:17:56;;;;;;;10.48;1.63;;;14.20;99.90;;;;;;5068954;28;20076;-81
2022/10/19 10:20:26;;;;;;;11.65;2.20;;;14.30;99.90;;;;;;5069186;28;20040;-82
2022/10/19 10:23:01;;;;;;;10.90;2.30;;;14.50;99.90;;;;;;5053268;28;20150;-82
2022/10/19 10:25:33;;;;;;;11.57;2.33;;;14.70;99.90;;;;;;5053328;28;20072;-82
2022/10/19 10:28:16;;;;;;;11.52;2.17;;;14.70;99.90;;;;;;5069755;28;20037;-82
2022/10/19 10:30:44;;;;;;;11.30;2.65;;;14.80;99.90;;;;;;5052593;28;20037;-82
2022/10/19 10:33:15;;;;;;;12.93;3.83;;;14.80;99.90;;;;;;5049421;28;20041;-82
2022/10/19 10:35:48;;;;;;;10.63;2.22;;;14.80;99.90;;;;;;5050015;28;20041;-82
2022/10/19 10:38:20;;;;;;;8.80;2.00;;;14.80;99.90;;;;;;5049000;28;20037;-82
2022/10/19 10:40:51;;;;;;;8.02;1.50;;;14.80;99.90;;;;;;5049667;28;20521;-82
2022/10/19 10:43:21;;;;;;;11.60;2.50;;;14.80;99.90;;;;;;5033252;28;20037;-82
2022/10/19 10:45:52;;;;;;;12.75;1.70;;;14.90;99.90;;;;;;5049921;28;20087;-82
2022/10/19 10:48:27;;;;;;;10.43;2.38;;;14.90;99.90;;;;;;5049892;28;20037;-82
2022/10/19 10:50:54;;;;;;;11.27;2.03;;;14.90;99.90;;;;;;5049002;28;20133;-82
2022/10/19 10:53:37;;;;;;;10.63;2.13;;;14.90;99.90;;;;;;5051042;28;20498;-82
2022/10/19 10:56:05;;;;;;;10.02;2.03;;;15.00;99.90;;;;;;5053384;28;20131;-82
2022/10/19 10:58:42;;;;;;;13.73;3.42;;;15.10;99.90;;;;;;5053634;28;20041;-82
2022/10/19 11:01:27;;;;;;;9.38;1.88;;;15.20;99.90;;;;;;5053066;28;20044;-82
2022/10/19 11:04:10;;;;;;;8.38;2.35;;;15.10;99.90;;;;;;5053610;28;20037;-82
2022/10/19 11:06:42;;;;;;;12.82;2.30;;;15.20;99.90;;;;;;5053363;28;20518;-82
2022/10/19 11:09:20;;;;;;;13.13;1.73;;;15.30;99.90;;;;;;5036349;28;20037;-82
2022/10/19 11:11:48;;;;;;;10.50;2.38;;;15.30;99.90;;;;;;5052194;28;20127;-82
2022/10/19 11:14:35;;;;;;;12.95;3.10;;;15.40;99.90;;;;;;5036692;28;20082;-82
2022/10/19 11:17:10;;;;;;;10.80;3.10;;;15.50;99.50;;;;;;5052785;28;20044;-83
2022/10/19 11:19:41;;;;;;;12.18;2.38;;;15.50;99.90;;;;;;5052826;28;20507;-82
2022/10/19 11:22:31;;;;;;;10.60;2.33;;;15.70;99.90;;;;;;5052400;28;20037;-82
2022/10/19 11:25:25;;;;;;;8.85;1.95;;;15.80;99.60;;;;;;5052760;28;20406;-83
2022/10/19 11:27:56;;;;;;;11.43;2.38;;;16.00;98.90;;;;;;5071867;28;20040;-82
2022/10/19 11:30:24;;;;;;;10.45;2.22;;;16.00;97.90;;;;;;5079138;28;20122;-82
2022/10/19 11:32:59;;;;;;;9.32;1.85;;;16.00;97.10;;;;;;5071314;28;20052;-82
2022/10/19 11:35:58;;;;;;;10.00;1.92;;;16.10;97.00;;;;;;5069741;28;21024;-82
2022/10/19 11:38:50;;;;;;;11.32;2.28;;;16.10;97.50;;;;;;5071797;28;20028;-82
2022/10/19 11:41:38;;;;;;;9.32;2.08;;;16.10;96.70;;;;;;5070024;28;20040;-82
2022/10/19 11:44:25;;;;;;;10.55;2.35;;;16.00;96.50;;;;;;5036148;28;20052;-82
2022/10/19 11:47:09;;;;;;;9.50;1.73;;;16.00;95.20;;;;;;5052826;28;20045;-82
2022/10/19 11:50:00;;;;;;;9.10;1.70;;;16.00;95.70;;;;;;5052457;28;20068;-82
2022/10/19 11:52:31;;;;;;;8.98;2.22;;;16.00;97.30;;;;;;5035408;28;20041;-82
2022/10/19 11:55:13;;;;;;;8.95;1.92;;;15.90;97.20;;;;;;5052467;28;20041;-82
2022/10/19 11:58:13;;;;;;;10.45;2.40;;;15.90;96.70;;;;;;5035486;28;20045;-82
2022/10/19 12:01:20;;;;;;;11.20;2.05;;;16.20;97.40;;;;;;5030786;28;20502;-83
2022/10/19 12:04:10;;;;;;;10.15;2.15;;;16.40;98.50;;;;;;5038529;28;20080;-82
2022/10/19 12:07:02;;;;;;;12.07;2.38;;;16.60;95.80;;;;;;5052348;28;20041;-82
2022/10/19 12:09:46;;;;;;;10.00;2.05;;;16.80;93.70;;;;;;5051577;28;20040;-82
2022/10/19 12:12:23;;;;;;;10.32;2.30;;;17.00;94.80;;;;;;5059823;28;20517;-83
2022/10/19 12:14:58;;;;;;;9.27;2.20;;;17.10;93.90;;;;;;5052442;28;20124;-82
2022/10/19 12:17:30;;;;;;;8.93;2.22;;;17.20;93.70;;;;;;5051841;28;20049;-82
2022/10/19 12:20:05;;;;;;;11.27;2.25;;;17.20;90.20;;;;;;5058608;28;20041;-82
2022/10/19 12:22:36;;;;;;;10.25;2.33;;;17.40;93.20;;;;;;5072831;28;20048;-82
2022/10/19 12:25:03;;;;;;;9.18;2.20;;;17.50;90.20;;;;;;5070875;28;20048;-83
2022/10/19 12:27:35;;;;;;;10.88;2.65;;;17.60;90.00;;;;;;5054874;28;20355;-83
2022/10/19 12:30:22;;;;;;;11.40;2.60;;;17.50;88.10;;;;;;5071210;28;20036;-82
2022/10/19 12:33:02;;;;;;;9.38;2.25;;;17.50;86.90;;;;;;5071407;28;20047;-83
2022/10/19 12:35:48;;;;;;;11.88;2.40;;;17.40;86.40;;;;;;5071361;28;20532;-83
2022/10/19 12:38:41;;;;;;;8.85;2.15;;;17.40;86.10;;;;;;5071256;28;20134;-83
2022/10/19 12:41:52;;;;;;;7.90;1.98;;;17.60;88.00;;;;;;5070685;28;20040;-83
2022/10/19 12:44:44;;;;;;;11.02;2.30;;;17.70;86.80;;;;;;5067118;28;20049;-83
2022/10/19 12:47:21;;;;;;;10.68;2.88;;;17.70;84.50;;;;;;5071343;28;20574;-83
2022/10/19 12:49:49;;;;;;;10.88;2.58;;;17.90;82.30;;;;;;5071300;28;20029;-83
2022/10/19 12:52:35;;;;;;;10.45;2.42;;;18.10;81.80;;;;;;5070746;28;20047;-83
2022/10/19 12:55:25;;;;;;;9.63;2.17;;;18.30;84.80;;;;;;5071596;28;20075;-83
2022/10/19 12:58:21;;;;;;;12.45;2.40;;;19.00;84.90;;;;;;5059387;28;20463;-83
2022/10/19 13:01:05;;;;;;;10.25;2.28;;;19.90;74.10;;;;;;5068890;28;20040;-83
2022/10/19 13:03:37;;;;;;;10.60;2.33;;;20.50;71.30;;;;;;5069147;28;20093;-83
2022/10/19 13:06:11;;;;;;;9.50;2.10;;;20.80;69.20;;;;;;5053592;28;20044;-83